createdAt,value
2023-05-24T00:02:20.042Z,12.43
2023-05-24T00:04:49.346Z,16.93
2023-05-24T00:07:16.549Z,14.07
2023-05-24T00:09:43.658Z,16.37
2023-05-24T00:12:11.066Z,18.67
2023-05-24T00:14:38.269Z,14.73
2023-05-24T00:17:05.702Z,16.43
2023-05-24T00:19:32.789Z,12.17
2023-05-24T00:21:59.915Z,11.33
2023-05-24T00:24:27.075Z,18.60
2023-05-24T00:26:54.225Z,9.97
2023-05-24T00:29:21.409Z,11.77
2023-05-24T00:31:48.542Z,13.97
2023-05-24T00:34:15.884Z,11.93
2023-05-24T00:36:43.014Z,8.50
2023-05-24T00:39:10.097Z,12.97
2023-05-24T00:41:37.168Z,14.97
2023-05-24T00:44:04.321Z,11.97
2023-05-24T00:46:33.971Z,15.93
2023-05-24T00:49:01.667Z,16.60
2023-05-24T00:51:29.250Z,9.67
2023-05-24T00:53:56.781Z,18.17
2023-05-24T00:56:24.134Z,15.17
2023-05-24T00:58:54.838Z,12.50
2023-05-24T01:01:26.474Z,9.97
2023-05-24T01:03:54.719Z,9.67
2023-05-24T01:06:23.483Z,10.33
2023-05-24T01:09:34.392Z,13.27
2023-05-24T01:12:21.799Z,14.33
2023-05-24T01:15:05.191Z,15.73
2023-05-24T01:17:52.152Z,14.97
2023-05-24T01:20:22.480Z,20.07
2023-05-24T01:23:25.402Z,21.60
2023-05-24T01:26:48.751Z,15.33
2023-05-24T01:29:17.542Z,16.63
2023-05-24T01:31:45.182Z,10.53
2023-05-24T01:34:12.676Z,16.40
2023-05-24T01:36:39.783Z,19.33
2023-05-24T01:39:06.942Z,12.17
2023-05-24T01:42:02.230Z,14.20
2023-05-24T01:44:42.918Z,13.43
2023-05-24T01:47:57.418Z,11.23
2023-05-24T01:50:43.889Z,14.77
2023-05-24T01:53:17.977Z,14.60
2023-05-24T01:55:48.027Z,15.73
2023-05-24T01:58:20.274Z,14.17
2023-05-24T02:00:47.724Z,13.10
2023-05-24T02:03:16.170Z,15.50
2023-05-24T02:05:44.413Z,10.23
2023-05-24T02:08:12.773Z,14.40
2023-05-24T02:10:41.313Z,15.73
2023-05-24T02:13:09.345Z,9.30
2023-05-24T02:15:36.631Z,8.47
2023-05-24T02:18:04.461Z,9.00
2023-05-24T02:20:31.885Z,9.47
2023-05-24T02:22:59.952Z,10.33
2023-05-24T02:25:27.081Z,11.73
2023-05-24T02:27:54.251Z,11.77
2023-05-24T02:30:21.420Z,12.37
2023-05-24T02:32:48.677Z,16.70
2023-05-24T02:35:15.976Z,11.00
2023-05-24T02:37:43.128Z,7.33
2023-05-24T02:40:11.334Z,8.33
2023-05-24T02:42:38.473Z,8.70
2023-05-24T02:45:06.693Z,11.53
2023-05-24T02:47:33.844Z,10.10
2023-05-24T02:50:01.059Z,12.37
2023-05-24T02:52:28.219Z,13.40
2023-05-24T02:54:55.423Z,7.60
2023-05-24T02:57:25.917Z,11.67
2023-05-24T02:59:53.135Z,7.93
2023-05-24T03:02:21.974Z,11.50
2023-05-24T03:04:51.907Z,11.57
2023-05-24T03:07:19.034Z,10.87
2023-05-24T03:09:46.286Z,10.93
2023-05-24T03:12:14.077Z,8.70
2023-05-24T03:14:41.199Z,8.80
2023-05-24T03:17:08.430Z,15.20
2023-05-24T03:19:35.575Z,6.70
2023-05-24T03:22:02.744Z,13.23
2023-05-24T03:24:29.839Z,10.13
2023-05-24T03:26:56.947Z,14.67
2023-05-24T03:29:28.951Z,14.07
2023-05-24T03:31:56.173Z,11.20
2023-05-24T03:34:27.902Z,14.60
2023-05-24T03:36:56.465Z,10.97
2023-05-24T03:39:23.652Z,12.13
2023-05-24T03:41:50.789Z,11.10
2023-05-24T03:44:17.955Z,17.53
2023-05-24T03:46:46.420Z,15.97
2023-05-24T03:49:13.652Z,13.53
2023-05-24T03:51:40.919Z,12.23
2023-05-24T03:54:09.350Z,12.07
2023-05-24T03:56:37.463Z,15.17
2023-05-24T03:59:04.705Z,14.03
2023-05-24T04:01:34.494Z,14.23
2023-05-24T04:04:03.987Z,14.70
2023-05-24T04:06:31.517Z,15.67
2023-05-24T04:09:01.102Z,17.97
2023-05-24T04:11:28.886Z,11.63
2023-05-24T04:13:57.939Z,16.40
2023-05-24T04:16:26.394Z,13.87
2023-05-24T04:18:58.000Z,12.27
2023-05-24T04:21:25.284Z,13.60
2023-05-24T04:23:52.407Z,10.93
2023-05-24T04:26:21.190Z,16.07
2023-05-24T04:28:48.636Z,15.43
2023-05-24T04:31:16.535Z,13.53
2023-05-24T04:33:44.239Z,7.17
2023-05-24T04:36:11.754Z,17.10
2023-05-24T04:38:40.904Z,18.03
2023-05-24T04:41:08.346Z,13.47
2023-05-24T04:43:38.684Z,15.93
2023-05-24T04:46:08.331Z,11.23
2023-05-24T04:48:36.696Z,9.33
2023-05-24T04:51:06.160Z,14.30
2023-05-24T04:53:33.355Z,11.57
2023-05-24T04:56:00.621Z,13.10
2023-05-24T04:58:27.804Z,15.27
2023-05-24T05:00:54.931Z,23.53
2023-05-24T05:03:22.219Z,15.23
2023-05-24T05:05:49.370Z,16.13
2023-05-24T05:08:16.513Z,12.80
2023-05-24T05:10:44.493Z,23.10
2023-05-24T05:13:11.786Z,10.77
2023-05-24T05:15:40.900Z,14.43
2023-05-24T05:18:12.696Z,13.40
2023-05-24T05:20:40.000Z,8.80
2023-05-24T05:23:07.183Z,18.67
2023-05-24T05:25:34.289Z,19.20
2023-05-24T05:28:01.487Z,13.43
2023-05-24T05:30:28.920Z,18.10
2023-05-24T05:32:56.168Z,16.37
2023-05-24T05:35:23.923Z,13.07
2023-05-24T05:37:51.077Z,16.60
2023-05-24T05:40:20.994Z,15.70
2023-05-24T05:42:49.092Z,15.20
2023-05-24T05:45:16.985Z,15.77
2023-05-24T05:47:46.666Z,16.53
2023-05-24T05:50:14.109Z,17.67
2023-05-24T05:52:41.322Z,21.13
2023-05-24T05:55:09.909Z,20.30
2023-05-24T05:57:37.140Z,28.13
2023-05-24T06:00:05.187Z,22.73
2023-05-24T06:02:32.495Z,18.83
2023-05-24T06:05:00.264Z,23.63
2023-05-24T06:07:27.633Z,19.40
2023-05-24T06:09:54.932Z,18.43
2023-05-24T06:12:22.039Z,14.80
2023-05-24T06:14:50.692Z,20.13
2023-05-24T06:17:19.019Z,17.67
2023-05-24T06:20:11.142Z,14.93
2023-05-24T06:22:39.840Z,16.80
2023-05-24T06:25:07.422Z,14.80
2023-05-24T06:27:34.862Z,15.80
2023-05-24T06:30:02.217Z,14.20
2023-05-24T06:32:29.382Z,16.30
2023-05-24T06:34:59.857Z,22.07
2023-05-24T06:37:31.626Z,19.37
2023-05-24T06:39:58.829Z,16.87
2023-05-24T06:42:26.493Z,18.80
2023-05-24T06:44:54.128Z,23.50
2023-05-24T06:47:22.772Z,21.33
2023-05-24T06:49:51.384Z,26.20
2023-05-24T06:52:18.507Z,20.07
2023-05-24T06:54:45.697Z,18.60
2023-05-24T06:57:13.022Z,28.00
2023-05-24T07:00:08.827Z,17.60
2023-05-24T07:02:36.126Z,19.13
2023-05-24T07:05:12.091Z,18.60
2023-05-24T07:07:43.359Z,16.83
2023-05-24T07:10:12.338Z,19.13
2023-05-24T07:12:39.657Z,20.97
2023-05-24T07:15:10.009Z,17.77
2023-05-24T07:17:37.445Z,16.10
2023-05-24T07:20:13.670Z,16.07
2023-05-24T07:22:44.167Z,25.37
2023-05-24T07:25:11.522Z,15.53
2023-05-24T07:27:38.871Z,17.00
2023-05-24T07:30:16.476Z,20.87
2023-05-24T07:32:51.973Z,17.67
2023-05-24T07:35:19.528Z,23.43
2023-05-24T07:37:47.942Z,20.43
2023-05-24T07:40:18.561Z,17.83
2023-05-24T07:42:48.681Z,12.27
2023-05-24T07:45:15.939Z,14.13
2023-05-24T07:47:43.307Z,14.73
2023-05-24T07:50:11.836Z,19.40
2023-05-24T07:52:39.860Z,18.17
2023-05-24T07:55:07.857Z,18.63
2023-05-24T07:57:35.071Z,21.33
2023-05-24T08:00:10.189Z,22.53
2023-05-24T08:02:40.299Z,19.80
2023-05-24T08:05:09.453Z,15.30
2023-05-24T08:07:36.886Z,24.33
2023-05-24T08:10:04.355Z,22.40
2023-05-24T08:12:31.530Z,18.77
2023-05-24T08:14:58.908Z,15.23
2023-05-24T08:17:33.884Z,15.23
2023-05-24T08:20:01.140Z,16.43
2023-05-24T08:22:28.345Z,21.40
2023-05-24T08:24:55.525Z,16.87
2023-05-24T08:27:23.990Z,17.60
2023-05-24T08:29:51.420Z,21.03
2023-05-24T08:32:18.605Z,14.53
2023-05-24T08:34:46.356Z,15.33
2023-05-24T08:37:16.248Z,15.80
2023-05-24T08:39:45.595Z,13.80
2023-05-24T08:42:13.086Z,11.60
2023-05-24T08:44:53.508Z,12.50
2023-05-24T08:47:24.139Z,19.40
2023-05-24T08:49:55.665Z,13.67
2023-05-24T08:52:24.205Z,17.00
2023-05-24T08:54:53.025Z,14.17
2023-05-24T08:57:31.446Z,11.30
2023-05-24T08:59:59.368Z,12.87
2023-05-24T09:02:30.246Z,15.80
2023-05-24T09:05:00.523Z,16.63
2023-05-24T09:07:30.441Z,14.37
2023-05-24T09:10:18.648Z,15.93
2023-05-24T09:13:03.066Z,18.93
2023-05-24T09:15:35.009Z,16.43
2023-05-24T09:18:03.935Z,14.90
2023-05-24T09:20:31.370Z,12.23
2023-05-24T09:23:04.743Z,14.03
2023-05-24T09:25:32.309Z,15.37
2023-05-24T09:28:05.964Z,22.33
2023-05-24T09:30:33.876Z,13.27
2023-05-24T09:33:02.513Z,15.87
2023-05-24T09:35:31.368Z,16.87
2023-05-24T09:38:02.475Z,17.90
2023-05-24T09:40:30.802Z,17.77
2023-05-24T09:43:12.486Z,13.50
2023-05-24T09:45:49.312Z,13.57
2023-05-24T09:48:20.840Z,16.17
2023-05-24T09:51:11.557Z,12.53
2023-05-24T09:53:42.043Z,13.90
2023-05-24T09:56:10.506Z,14.87
2023-05-24T09:58:37.685Z,12.20
2023-05-24T10:01:14.624Z,14.30
2023-05-24T10:04:04.783Z,14.40
2023-05-24T10:06:41.171Z,12.70
2023-05-24T10:09:10.242Z,9.13
2023-05-24T10:11:37.773Z,9.80
2023-05-24T10:14:25.680Z,14.80
2023-05-24T10:16:53.244Z,12.60
2023-05-24T10:19:21.767Z,14.43
2023-05-24T10:21:50.406Z,11.93
2023-05-24T10:24:23.998Z,12.83
2023-05-24T10:26:53.340Z,13.83
2023-05-24T10:29:55.319Z,11.17
2023-05-24T10:32:25.623Z,10.67
2023-05-24T10:34:54.260Z,10.13
2023-05-24T10:37:22.228Z,8.87
2023-05-24T10:39:53.520Z,11.07
2023-05-24T10:42:21.564Z,9.17
2023-05-24T10:44:48.840Z,12.30
2023-05-24T10:47:18.017Z,8.53
2023-05-24T10:49:58.278Z,13.17
2023-05-24T10:52:43.637Z,15.73
2023-05-24T10:55:13.592Z,7.87
2023-05-24T10:57:41.750Z,8.63
2023-05-24T11:00:34.068Z,9.43
2023-05-24T11:03:10.881Z,9.70
2023-05-24T11:05:48.052Z,10.13
2023-05-24T11:08:35.838Z,12.17
2023-05-24T11:11:23.211Z,9.37
2023-05-24T11:13:58.057Z,10.03
2023-05-24T11:16:40.469Z,8.47
2023-05-24T11:19:38.525Z,7.90
2023-05-24T11:22:13.940Z,10.13
2023-05-24T11:24:42.249Z,9.83
2023-05-24T11:27:13.645Z,8.32
2023-05-24T11:29:48.785Z,10.77
2023-05-24T11:32:18.900Z,12.82
2023-05-24T11:34:48.542Z,8.73
2023-05-24T11:37:26.336Z,8.02
2023-05-24T11:39:58.982Z,14.57
2023-05-24T11:42:29.398Z,7.90
2023-05-24T11:45:00.054Z,8.85
2023-05-24T11:47:27.877Z,8.10
2023-05-24T11:49:57.699Z,9.57
2023-05-24T11:52:34.210Z,12.13
2023-05-24T11:55:01.378Z,8.35
2023-05-24T11:57:40.059Z,9.73
2023-05-24T12:00:11.504Z,7.68
2023-05-24T12:02:40.577Z,7.70
2023-05-24T12:05:10.581Z,6.65
2023-05-24T12:07:38.161Z,14.85
2023-05-24T12:10:06.868Z,11.88
2023-05-24T12:12:45.192Z,7.90
2023-05-24T12:15:14.829Z,8.90
2023-05-24T12:17:42.425Z,12.40
2023-05-24T12:20:12.315Z,6.28
2023-05-24T12:22:47.478Z,13.23
2023-05-24T12:25:21.212Z,9.52
2023-05-24T12:27:55.834Z,7.15
2023-05-24T12:30:29.081Z,11.00
2023-05-24T12:32:57.772Z,8.90
2023-05-24T12:35:25.427Z,7.85
2023-05-24T12:38:00.166Z,9.15
2023-05-24T12:40:27.647Z,9.50
2023-05-24T12:42:57.946Z,12.90
2023-05-24T12:45:27.652Z,6.10
2023-05-24T12:48:04.866Z,10.85
2023-05-24T12:50:53.929Z,8.43
2023-05-24T12:53:24.197Z,8.50
2023-05-24T12:55:55.868Z,5.53
2023-05-24T12:58:27.808Z,10.05
2023-05-24T13:00:55.357Z,8.50
2023-05-24T13:03:23.052Z,10.05
2023-05-24T13:05:50.963Z,12.70
2023-05-24T13:08:18.959Z,11.90
2023-05-24T13:10:50.910Z,7.47
2023-05-24T13:13:24.366Z,8.82
2023-05-24T13:15:52.678Z,10.27
2023-05-24T13:18:20.071Z,15.20
2023-05-24T13:20:47.647Z,13.40
2023-05-24T13:23:18.399Z,6.78
2023-05-24T13:25:45.651Z,13.30
2023-05-24T13:28:12.896Z,13.73
2023-05-24T13:31:23.273Z,8.30
2023-05-24T13:33:52.078Z,11.30
2023-05-24T13:36:19.850Z,7.20
2023-05-24T13:38:47.138Z,10.20
2023-05-24T13:41:14.324Z,8.68
2023-05-24T13:43:41.759Z,8.68
2023-05-24T13:46:10.360Z,11.25
2023-05-24T13:48:39.720Z,8.18
2023-05-24T13:51:06.870Z,13.60
2023-05-24T13:53:33.996Z,8.23
2023-05-24T13:56:01.227Z,10.23
2023-05-24T13:58:28.465Z,9.77
2023-05-24T14:00:56.444Z,13.73
2023-05-24T14:03:24.296Z,6.13
2023-05-24T14:05:54.389Z,9.52
2023-05-24T14:08:23.162Z,11.23
2023-05-24T14:10:50.304Z,9.25
2023-05-24T14:13:59.005Z,10.93
2023-05-24T14:16:10.965Z,7.55
2023-05-24T14:18:38.284Z,12.23
2023-05-24T14:21:26.020Z,10.27
2023-05-24T14:23:53.423Z,8.60
2023-05-24T14:26:23.785Z,10.65
2023-05-24T14:28:59.419Z,9.93
2023-05-24T14:31:29.843Z,13.82
2023-05-24T14:33:57.628Z,7.85
2023-05-24T14:36:28.327Z,7.03
2023-05-24T14:38:55.814Z,8.80
2023-05-24T14:41:29.004Z,6.82
2023-05-24T14:43:56.519Z,11.43
2023-05-24T14:46:26.871Z,7.97
2023-05-24T14:49:08.882Z,8.90
2023-05-24T14:51:51.043Z,8.85
2023-05-24T14:54:43.130Z,14.20
2023-05-24T14:57:13.890Z,6.88
2023-05-24T15:02:25.875Z,10.13
2023-05-24T15:04:53.378Z,4.70
2023-05-24T15:07:21.470Z,8.38
2023-05-24T15:09:48.874Z,6.10
2023-05-24T15:12:18.862Z,8.95
2023-05-24T15:14:46.025Z,6.38
2023-05-24T15:17:13.372Z,8.57
2023-05-24T15:19:40.751Z,8.43
2023-05-24T15:22:08.284Z,9.25
2023-05-24T15:24:37.690Z,7.45
2023-05-24T15:27:05.058Z,7.57
2023-05-24T15:29:32.605Z,8.30
2023-05-24T15:32:01.460Z,7.57
2023-05-24T15:34:28.932Z,10.32
2023-05-24T15:36:56.113Z,10.65
2023-05-24T15:39:23.451Z,8.95
2023-05-24T15:41:50.758Z,7.22
2023-05-24T15:44:21.655Z,13.68
2023-05-24T15:46:48.911Z,5.80
2023-05-24T15:49:16.148Z,12.98
2023-05-24T15:54:13.756Z,7.55
2023-05-24T15:56:40.882Z,10.27
2023-05-24T15:59:08.708Z,8.95
2023-05-24T16:01:37.259Z,7.90
2023-05-24T16:04:07.854Z,10.27
2023-05-24T16:06:37.090Z,11.00
2023-05-24T16:09:05.300Z,10.25
2023-05-24T16:11:43.242Z,12.93
2023-05-24T16:14:10.417Z,6.38
2023-05-24T16:16:38.018Z,8.55
2023-05-24T16:19:08.252Z,6.30
2023-05-24T16:21:35.965Z,7.25
2023-05-24T16:24:04.200Z,8.38
2023-05-24T16:26:32.248Z,8.60
2023-05-24T16:28:59.984Z,5.85
2023-05-24T16:31:27.200Z,7.18
2023-05-24T16:33:55.025Z,9.13
2023-05-24T16:36:22.172Z,10.82
2023-05-24T16:38:49.323Z,7.97
2023-05-24T16:41:16.715Z,13.18
2023-05-24T16:43:44.071Z,9.18
2023-05-24T16:46:11.698Z,9.45
2023-05-24T16:48:39.082Z,10.40
2023-05-24T16:51:06.624Z,8.30
2023-05-24T16:53:34.004Z,9.95
2023-05-24T16:56:01.799Z,8.23
2023-05-24T16:58:30.990Z,4.28
2023-05-24T17:00:58.528Z,8.82
2023-05-24T17:03:28.886Z,7.50
2023-05-24T17:06:03.389Z,8.95
2023-05-24T17:08:36.900Z,11.05
2023-05-24T17:11:05.268Z,11.82
2023-05-24T17:13:33.359Z,9.75
2023-05-24T17:16:05.031Z,9.93
2023-05-24T17:18:32.555Z,5.68
2023-05-24T17:21:05.063Z,9.38
2023-05-24T17:23:36.700Z,12.20
2023-05-24T17:26:05.752Z,12.07
2023-05-24T17:28:49.207Z,9.20
2023-05-24T17:31:16.924Z,8.15
2023-05-24T17:33:44.290Z,8.85
2023-05-24T17:36:12.256Z,8.25
2023-05-24T17:38:43.749Z,8.95
2023-05-24T17:41:14.609Z,8.35
2023-05-24T17:43:42.143Z,12.13
2023-05-24T17:46:37.320Z,7.88
2023-05-24T17:49:06.320Z,8.32
2023-05-24T17:51:34.999Z,8.88
2023-05-24T17:54:02.143Z,14.75
2023-05-24T17:56:30.346Z,8.50
2023-05-24T17:58:58.011Z,6.40
2023-05-24T18:01:25.795Z,11.13
2023-05-24T18:03:53.001Z,7.85
2023-05-24T18:06:20.491Z,9.40
2023-05-24T18:08:47.892Z,10.53
2023-05-24T18:11:15.687Z,11.30
2023-05-24T18:13:43.642Z,12.03
2023-05-24T18:16:12.061Z,11.10
2023-05-24T18:18:39.604Z,8.33
2023-05-24T18:21:09.570Z,12.50
2023-05-24T18:23:38.071Z,14.30
2023-05-24T18:26:12.385Z,10.73
2023-05-24T18:28:41.749Z,11.90
2023-05-24T18:31:10.756Z,6.63
2023-05-24T18:33:38.298Z,11.90
2023-05-24T18:36:06.335Z,10.00
2023-05-24T18:38:39.771Z,10.70
2023-05-24T18:41:09.847Z,13.97
2023-05-24T18:43:37.378Z,12.27
2023-05-24T18:46:04.805Z,11.20
2023-05-24T18:48:31.991Z,15.20
2023-05-24T18:50:59.224Z,14.87
2023-05-24T18:53:26.321Z,11.87
2023-05-24T18:55:53.504Z,11.63
2023-05-24T18:58:20.726Z,10.50
2023-05-24T19:00:47.888Z,12.10
2023-05-24T19:03:15.118Z,11.70
2023-05-24T19:05:44.136Z,11.60
2023-05-24T19:08:11.598Z,14.77
2023-05-24T19:10:38.840Z,13.07
2023-05-24T19:13:07.044Z,16.30
2023-05-24T19:15:39.213Z,10.47
2023-05-24T19:18:06.640Z,12.13
2023-05-24T19:20:33.964Z,9.20
2023-05-24T19:23:01.287Z,11.90
2023-05-24T19:25:28.677Z,11.80
2023-05-24T19:28:00.025Z,10.30
2023-05-24T19:30:27.929Z,10.23
2023-05-24T19:32:55.178Z,12.63
2023-05-24T19:35:22.520Z,9.73
2023-05-24T19:37:53.465Z,10.33
2023-05-24T19:40:21.970Z,12.00
2023-05-24T19:42:49.164Z,9.40
2023-05-24T19:45:16.526Z,12.93
2023-05-24T19:47:45.245Z,13.37
2023-05-24T19:50:12.443Z,14.57
2023-05-24T19:52:39.626Z,11.03
2023-05-24T19:55:10.117Z,15.47
2023-05-24T19:57:37.256Z,10.80
2023-05-24T20:00:06.356Z,12.93
2023-05-24T20:02:36.776Z,13.37
2023-05-24T20:05:07.447Z,8.53
2023-05-24T20:07:34.658Z,10.50
2023-05-24T20:10:05.538Z,12.07
2023-05-24T20:12:35.433Z,10.33
2023-05-24T20:15:08.183Z,13.50
2023-05-24T20:17:35.401Z,7.37
2023-05-24T20:20:04.330Z,10.93
2023-05-24T20:22:31.506Z,16.13
2023-05-24T20:24:58.728Z,11.80
2023-05-24T20:27:25.922Z,14.17
2023-05-24T20:29:53.111Z,12.70
2023-05-24T20:32:20.502Z,12.33
2023-05-24T20:34:47.764Z,12.77
2023-05-24T20:37:14.992Z,9.97
2023-05-24T20:39:42.191Z,13.53
2023-05-24T20:42:09.322Z,11.07
2023-05-24T20:44:36.566Z,12.67
2023-05-24T20:47:03.985Z,7.97
2023-05-24T20:49:31.361Z,9.27
2023-05-24T20:51:58.638Z,10.70
2023-05-24T20:54:26.091Z,10.37
2023-05-24T20:56:53.328Z,9.33
2023-05-24T20:59:20.619Z,13.30
2023-05-24T21:01:48.031Z,9.77
2023-05-24T21:04:15.500Z,6.27
2023-05-24T21:06:42.688Z,11.77
2023-05-24T21:09:09.977Z,11.37
2023-05-24T21:11:37.228Z,12.30
2023-05-24T21:14:04.453Z,13.90
2023-05-24T21:16:32.694Z,14.83
2023-05-24T21:19:02.740Z,10.93
2023-05-24T21:21:29.887Z,10.93
2023-05-24T21:24:03.612Z,10.17
2023-05-24T21:26:31.051Z,12.03
2023-05-24T21:28:58.332Z,12.23
2023-05-24T21:33:53.725Z,6.33
2023-05-24T21:36:24.343Z,7.13
2023-05-24T21:38:51.557Z,11.03
2023-05-24T21:41:19.405Z,9.37
2023-05-24T21:44:00.808Z,10.83
2023-05-24T21:46:33.049Z,10.37
2023-05-24T21:49:20.756Z,10.63
2023-05-24T21:51:49.016Z,12.40
2023-05-24T21:54:20.331Z,8.70
2023-05-24T21:56:51.399Z,7.63
2023-05-24T21:59:22.375Z,11.80
2023-05-24T22:01:53.143Z,9.57
2023-05-24T22:04:23.480Z,11.53
2023-05-24T22:07:04.404Z,8.67
2023-05-24T22:09:35.022Z,15.60
2023-05-24T22:12:19.427Z,11.83
2023-05-24T22:14:55.994Z,11.97
2023-05-24T22:17:24.888Z,12.87
2023-05-24T22:19:53.335Z,8.07
2023-05-24T22:22:27.279Z,9.07
2023-05-24T22:25:00.162Z,10.03
2023-05-24T22:27:30.822Z,7.60
2023-05-24T22:29:58.412Z,12.10
2023-05-24T22:32:25.633Z,16.10
2023-05-24T22:34:52.999Z,14.60
2023-05-24T22:37:20.465Z,13.70
2023-05-24T22:39:50.507Z,13.90
2023-05-24T22:42:18.940Z,15.47
2023-05-24T22:44:46.592Z,15.70
2023-05-24T22:47:14.184Z,8.17
2023-05-24T22:49:41.407Z,17.23
2023-05-24T22:52:15.020Z,14.27
2023-05-24T22:54:42.330Z,13.83
2023-05-24T22:57:09.892Z,10.80
2023-05-24T22:59:37.373Z,9.90
2023-05-24T23:02:04.635Z,15.13
2023-05-24T23:04:33.573Z,13.17
2023-05-24T23:07:07.100Z,12.17
2023-05-24T23:09:38.250Z,13.47
2023-05-24T23:12:08.539Z,14.80
2023-05-24T23:14:38.905Z,16.10
2023-05-24T23:17:17.141Z,12.00
2023-05-24T23:19:45.006Z,13.33
2023-05-24T23:22:18.498Z,14.73
2023-05-24T23:24:49.901Z,15.27
2023-05-24T23:27:42.372Z,10.90
2023-05-24T23:30:10.686Z,13.43
2023-05-24T23:32:41.643Z,13.73
2023-05-24T23:35:09.692Z,14.60
2023-05-24T23:37:37.593Z,12.40
2023-05-24T23:40:06.689Z,10.77
2023-05-24T23:42:37.879Z,11.93
2023-05-24T23:45:11.995Z,12.23
2023-05-24T23:47:39.195Z,9.23
2023-05-24T23:50:07.920Z,12.83
2023-05-24T23:52:37.966Z,12.87
2023-05-24T23:55:06.493Z,14.63
2023-05-24T23:57:39.196Z,17.80
